Startpagina
METAR-TAF:

METAR-TAF

Vliegvelden :

Koeweit, Koeweit

breedte: 29-13N, lengte: 047-59E, hoogte: 55 m

Actueel weer

Dit bericht is 47 minuten geleden gemaakt, om 10:00 UTC
Wind 6 kt uit het oostzuidoosten
Temperatuur 39°C
Vochtigheid 40%
Druk 1005 hPa
Zicht: 6000 m

METAR: OKBK 191000Z 12006KT 6000 NSC 39/23 Q1005 NOSIG

Tijdstip: 13:47 (10:47 UTC)

Verwachting

Dit bericht is 6 uur en het 2 minuten geleden gemaakt, om 04:45 UTC
Verwachting geldig van 19 om 06 UTC tot 20 om 12 UTC
Wind 3 kt uit variabele richting
Zicht: 6000 m
Onbewolkt
Tijdelijke
van 19 om 10 UTC tot 19 om 18 UTC
Wind 12 kt uit het zuidoosten

TAF: OKBK 190445Z 1906/2012 VRB03KT 6000 SKC TEMPO 1910/1918 14012KT

Waarnemingen en weersverwachtingen van meer dan 4000 vliegvelden (METAR en TAF).

De beschikbare stations zijn de gele en rode punten op de kaart.

Ga met uw muis naar het station om de naam te zien.

Klik dan om waarnemingen en weersverwachtingen te zien.

kaart wijzigen: klik op de groene knoppen met een zwart kruis om in te zoomen, op de groene knop met een streepje om uit te zoomen of op de groene pijlen voor aangrenzende kaarten.


METAR-TAF: